sensor_id;sensor_type;location;lat;lon;timestamp;pressure;altitude;pressure_sealevel;temperature;humidity
35892;BME280;21993;42.672;23.296;2023-04-05T00:00:56;94245.81;;;3.54;67.93
35892;BME280;21993;42.672;23.296;2023-04-05T00:03:21;94250.47;;;3.49;68.06
35892;BME280;21993;42.672;23.296;2023-04-05T00:05:47;94248.19;;;3.45;68.08
35892;BME280;21993;42.672;23.296;2023-04-05T00:08:14;94244.47;;;3.49;67.94
35892;BME280;21993;42.672;23.296;2023-04-05T00:10:48;94241.16;;;3.47;67.38
35892;BME280;21993;42.672;23.296;2023-04-05T00:13:14;94244.34;;;3.50;67.54
35892;BME280;21993;42.672;23.296;2023-04-05T00:15:40;94237.91;;;3.56;67.66
35892;BME280;21993;42.672;23.296;2023-04-05T00:18:05;94240.63;;;3.42;67.72
35892;BME280;21993;42.672;23.296;2023-04-05T00:20:31;94243.41;;;3.51;67.66
35892;BME280;21993;42.672;23.296;2023-04-05T00:22:58;94238.53;;;3.34;68.88
35892;BME280;21993;42.672;23.296;2023-04-05T00:25:24;94247.66;;;3.52;68.40
35892;BME280;21993;42.672;23.296;2023-04-05T00:27:50;94248.81;;;3.23;69.00
35892;BME280;21993;42.672;23.296;2023-04-05T00:30:16;94242.41;;;3.28;68.14
35892;BME280;21993;42.672;23.296;2023-04-05T00:32:48;94246.53;;;3.44;68.65
35892;BME280;21993;42.672;23.296;2023-04-05T00:35:16;94244.88;;;3.43;67.49
35892;BME280;21993;42.672;23.296;2023-04-05T00:37:42;94238.88;;;3.29;68.59
35892;BME280;21993;42.672;23.296;2023-04-05T00:40:08;94252.13;;;3.25;68.55
35892;BME280;21993;42.672;23.296;2023-04-05T00:42:33;94244.88;;;3.30;67.82
35892;BME280;21993;42.672;23.296;2023-04-05T00:44:59;94247.16;;;3.22;68.56
35892;BME280;21993;42.672;23.296;2023-04-05T00:47:24;94246.53;;;3.18;68.37
35892;BME280;21993;42.672;23.296;2023-04-05T00:49:50;94242.06;;;3.33;68.02
35892;BME280;21993;42.672;23.296;2023-04-05T00:52:16;94242.19;;;3.31;67.98
35892;BME280;21993;42.672;23.296;2023-04-05T00:54:43;94249.84;;;3.33;67.87
35892;BME280;21993;42.672;23.296;2023-04-05T00:57:09;94251.94;;;3.41;67.63
35892;BME280;21993;42.672;23.296;2023-04-05T00:59:35;94257.72;;;3.44;67.02
35892;BME280;21993;42.672;23.296;2023-04-05T01:04:33;94247.28;;;3.46;66.79
35892;BME280;21993;42.672;23.296;2023-04-05T01:12:09;94248.09;;;3.46;66.99
35892;BME280;21993;42.672;23.296;2023-04-05T01:14:50;94257.94;;;3.41;66.70
35892;BME280;21993;42.672;23.296;2023-04-05T01:17:20;94262.72;;;3.34;66.84
35892;BME280;21993;42.672;23.296;2023-04-05T01:20:06;94257.34;;;3.37;66.63
35892;BME280;21993;42.672;23.296;2023-04-05T01:31:40;94266.56;;;3.42;66.99
35892;BME280;21993;42.672;23.296;2023-04-05T01:34:22;94264.28;;;3.62;66.84
35892;BME280;21993;42.672;23.296;2023-04-05T01:36:56;94265.00;;;3.64;66.63
35892;BME280;21993;42.672;23.296;2023-04-05T01:39:26;94266.06;;;3.62;66.42
35892;BME280;21993;42.672;23.296;2023-04-05T01:41:58;94253.28;;;3.46;67.32
35892;BME280;21993;42.672;23.296;2023-04-05T01:44:24;94267.78;;;3.36;67.36
35892;BME280;21993;42.672;23.296;2023-04-05T01:46:49;94265.22;;;3.49;67.10
35892;BME280;21993;42.672;23.296;2023-04-05T01:49:15;94264.81;;;3.29;67.62
35892;BME280;21993;42.672;23.296;2023-04-05T01:51:40;94258.28;;;3.36;66.65
35892;BME280;21993;42.672;23.296;2023-04-05T01:54:07;94259.19;;;3.23;67.10
35892;BME280;21993;42.672;23.296;2023-04-05T01:56:33;94256.59;;;3.23;67.74
35892;BME280;21993;42.672;23.296;2023-04-05T01:58:58;94255.47;;;3.39;66.73
35892;BME280;21993;42.672;23.296;2023-04-05T02:01:23;94253.91;;;3.37;67.21
35892;BME280;21993;42.672;23.296;2023-04-05T02:03:49;94255.88;;;3.33;67.14
35892;BME280;21993;42.672;23.296;2023-04-05T02:06:14;94265.75;;;3.54;67.22
35892;BME280;21993;42.672;23.296;2023-04-05T02:08:40;94257.13;;;3.53;66.63
35892;BME280;21993;42.672;23.296;2023-04-05T02:11:06;94270.91;;;3.66;65.71
35892;BME280;21993;42.672;23.296;2023-04-05T02:13:31;94269.56;;;3.61;66.57
35892;BME280;21993;42.672;23.296;2023-04-05T02:15:56;94260.13;;;3.60;66.42
35892;BME280;21993;42.672;23.296;2023-04-05T02:18:22;94258.34;;;3.73;65.95
35892;BME280;21993;42.672;23.296;2023-04-05T02:21:00;94258.16;;;3.63;66.03
35892;BME280;21993;42.672;23.296;2023-04-05T02:23:26;94265.50;;;3.70;66.68
35892;BME280;21993;42.672;23.296;2023-04-05T02:25:52;94266.44;;;3.68;66.42
35892;BME280;21993;42.672;23.296;2023-04-05T02:28:17;94263.34;;;3.63;66.26
35892;BME280;21993;42.672;23.296;2023-04-05T02:30:43;94259.28;;;3.59;66.16
35892;BME280;21993;42.672;23.296;2023-04-05T02:33:08;94262.63;;;3.49;66.84
35892;BME280;21993;42.672;23.296;2023-04-05T02:35:34;94267.81;;;3.49;66.98
35892;BME280;21993;42.672;23.296;2023-04-05T02:38:01;94266.75;;;3.51;67.06
35892;BME280;21993;42.672;23.296;2023-04-05T02:40:27;94255.03;;;3.58;66.91
35892;BME280;21993;42.672;23.296;2023-04-05T02:42:52;94264.47;;;3.59;66.18
35892;BME280;21993;42.672;23.296;2023-04-05T02:45:17;94257.41;;;3.61;66.00
35892;BME280;21993;42.672;23.296;2023-04-05T02:47:43;94258.69;;;3.56;66.94
35892;BME280;21993;42.672;23.296;2023-04-05T02:50:09;94257.09;;;3.66;66.15
35892;BME280;21993;42.672;23.296;2023-04-05T02:52:34;94267.25;;;3.69;66.04
35892;BME280;21993;42.672;23.296;2023-04-05T02:55:03;94254.22;;;3.71;65.74
35892;BME280;21993;42.672;23.296;2023-04-05T02:57:29;94256.88;;;3.69;65.94
35892;BME280;21993;42.672;23.296;2023-04-05T02:59:54;94254.50;;;3.66;66.69
35892;BME280;21993;42.672;23.296;2023-04-05T03:02:20;94260.84;;;3.75;66.51
35892;BME280;21993;42.672;23.296;2023-04-05T03:04:46;94248.78;;;3.74;66.22
35892;BME280;21993;42.672;23.296;2023-04-05T03:07:11;94255.66;;;3.62;66.44
35892;BME280;21993;42.672;23.296;2023-04-05T03:09:43;94257.44;;;3.49;67.26
35892;BME280;21993;42.672;23.296;2023-04-05T03:12:11;94251.38;;;3.61;66.30
35892;BME280;21993;42.672;23.296;2023-04-05T03:14:37;94255.75;;;3.73;66.31
35892;BME280;21993;42.672;23.296;2023-04-05T03:17:03;94257.19;;;3.77;66.70
35892;BME280;21993;42.672;23.296;2023-04-05T03:19:28;94254.00;;;3.74;66.03
35892;BME280;21993;42.672;23.296;2023-04-05T03:21:54;94248.94;;;3.47;66.63
35892;BME280;21993;42.672;23.296;2023-04-05T03:24:19;94255.84;;;3.59;67.27
35892;BME280;21993;42.672;23.296;2023-04-05T03:26:46;94255.88;;;3.46;66.62
35892;BME280;21993;42.672;23.296;2023-04-05T03:29:12;94256.50;;;3.50;66.52
35892;BME280;21993;42.672;23.296;2023-04-05T03:31:38;94251.94;;;3.53;66.32
35892;BME280;21993;42.672;23.296;2023-04-05T03:34:03;94248.28;;;3.43;67.35
35892;BME280;21993;42.672;23.296;2023-04-05T03:36:29;94253.50;;;3.56;67.44
35892;BME280;21993;42.672;23.296;2023-04-05T03:39:11;94257.31;;;3.50;67.41
35892;BME280;21993;42.672;23.296;2023-04-05T03:41:37;94257.53;;;3.60;67.23
35892;BME280;21993;42.672;23.296;2023-04-05T03:44:03;94267.19;;;3.71;67.90
35892;BME280;21993;42.672;23.296;2023-04-05T03:46:29;94254.22;;;3.71;66.85
35892;BME280;21993;42.672;23.296;2023-04-05T03:48:56;94275.16;;;3.67;68.14
35892;BME280;21993;42.672;23.296;2023-04-05T03:51:22;94272.78;;;3.64;68.49
35892;BME280;21993;42.672;23.296;2023-04-05T03:53:48;94271.44;;;3.59;68.73
35892;BME280;21993;42.672;23.296;2023-04-05T03:56:14;94276.44;;;3.62;69.81
35892;BME280;21993;42.672;23.296;2023-04-05T03:58:39;94276.44;;;3.62;69.93
35892;BME280;21993;42.672;23.296;2023-04-05T04:01:05;94276.81;;;3.68;69.97
35892;BME280;21993;42.672;23.296;2023-04-05T04:03:31;94273.69;;;3.76;70.01
35892;BME280;21993;42.672;23.296;2023-04-05T04:05:56;94281.50;;;3.76;69.81
35892;BME280;21993;42.672;23.296;2023-04-05T04:08:22;94282.53;;;3.74;69.39
35892;BME280;21993;42.672;23.296;2023-04-05T04:10:48;94282.94;;;3.80;70.27
35892;BME280;21993;42.672;23.296;2023-04-05T04:13:14;94286.88;;;3.86;69.99
35892;BME280;21993;42.672;23.296;2023-04-05T04:15:39;94286.88;;;3.86;70.03
35892;BME280;21993;42.672;23.296;2023-04-05T04:18:05;94285.97;;;3.87;69.64
35892;BME280;21993;42.672;23.296;2023-04-05T04:20:30;94286.16;;;3.84;69.56
35892;BME280;21993;42.672;23.296;2023-04-05T04:22:56;94285.22;;;3.85;70.29
35892;BME280;21993;42.672;23.296;2023-04-05T04:25:22;94296.13;;;3.77;69.92
35892;BME280;21993;42.672;23.296;2023-04-05T04:27:47;94289.38;;;3.87;70.39
35892;BME280;21993;42.672;23.296;2023-04-05T04:30:14;94282.84;;;3.82;70.38
35892;BME280;21993;42.672;23.296;2023-04-05T04:32:41;94290.28;;;3.86;69.62
35892;BME280;21993;42.672;23.296;2023-04-05T04:35:22;94286.56;;;3.78;70.52
35892;BME280;21993;42.672;23.296;2023-04-05T04:37:56;94295.59;;;3.85;70.39
35892;BME280;21993;42.672;23.296;2023-04-05T04:40:29;94294.47;;;3.76;70.48
35892;BME280;21993;42.672;23.296;2023-04-05T04:43:08;94287.69;;;3.86;69.88
35892;BME280;21993;42.672;23.296;2023-04-05T04:45:39;94293.22;;;3.82;70.74
35892;BME280;21993;42.672;23.296;2023-04-05T04:48:05;94302.97;;;3.91;69.58
35892;BME280;21993;42.672;23.296;2023-04-05T04:50:31;94300.00;;;3.72;70.46
35892;BME280;21993;42.672;23.296;2023-04-05T04:53:00;94295.19;;;3.53;69.81
35892;BME280;21993;42.672;23.296;2023-04-05T04:55:27;94297.59;;;3.56;69.81
35892;BME280;21993;42.672;23.296;2023-04-05T04:57:53;94301.41;;;3.76;69.62
35892;BME280;21993;42.672;23.296;2023-04-05T05:00:20;94293.63;;;3.76;69.34
35892;BME280;21993;42.672;23.296;2023-04-05T05:02:46;94293.44;;;3.66;69.39
35892;BME280;21993;42.672;23.296;2023-04-05T05:05:12;94302.66;;;3.83;69.54
35892;BME280;21993;42.672;23.296;2023-04-05T05:07:39;94294.34;;;3.78;68.77
35892;BME280;21993;42.672;23.296;2023-04-05T05:10:11;94303.19;;;3.88;68.64
35892;BME280;21993;42.672;23.296;2023-04-05T05:12:40;94302.28;;;3.63;68.72
35892;BME280;21993;42.672;23.296;2023-04-05T05:15:06;94312.34;;;3.81;69.13
35892;BME280;21993;42.672;23.296;2023-04-05T05:17:31;94308.38;;;3.75;68.38
35892;BME280;21993;42.672;23.296;2023-04-05T05:19:58;94303.81;;;3.79;68.54
35892;BME280;21993;42.672;23.296;2023-04-05T05:22:28;94317.41;;;3.82;68.05
35892;BME280;21993;42.672;23.296;2023-04-05T05:24:53;94313.28;;;3.80;68.63
35892;BME280;21993;42.672;23.296;2023-04-05T05:27:18;94315.34;;;3.87;67.95
35892;BME280;21993;42.672;23.296;2023-04-05T05:29:45;94307.03;;;3.82;68.57
35892;BME280;21993;42.672;23.296;2023-04-05T05:32:11;94314.72;;;3.84;68.76
35892;BME280;21993;42.672;23.296;2023-04-05T05:34:40;94320.22;;;3.79;68.82
35892;BME280;21993;42.672;23.296;2023-04-05T05:37:06;94312.22;;;3.82;68.63
35892;BME280;21993;42.672;23.296;2023-04-05T05:39:34;94304.66;;;3.79;67.72
35892;BME280;21993;42.672;23.296;2023-04-05T05:42:00;94307.63;;;3.86;68.27
35892;BME280;21993;42.672;23.296;2023-04-05T05:44:27;94308.69;;;3.83;68.52
35892;BME280;21993;42.672;23.296;2023-04-05T05:46:53;94310.75;;;3.91;68.37
35892;BME280;21993;42.672;23.296;2023-04-05T05:49:18;94295.78;;;3.94;67.95
35892;BME280;21993;42.672;23.296;2023-04-05T05:51:44;94302.34;;;4.00;67.86
35892;BME280;21993;42.672;23.296;2023-04-05T05:54:09;94302.53;;;4.10;67.88
35892;BME280;21993;42.672;23.296;2023-04-05T05:56:35;94304.22;;;3.98;66.89
35892;BME280;21993;42.672;23.296;2023-04-05T05:59:01;94299.91;;;4.10;66.67
35892;BME280;21993;42.672;23.296;2023-04-05T06:01:26;94296.00;;;4.04;66.40
35892;BME280;21993;42.672;23.296;2023-04-05T06:03:53;94301.50;;;4.12;67.18
35892;BME280;21993;42.672;23.296;2023-04-05T06:06:18;94300.56;;;4.13;66.42
35892;BME280;21993;42.672;23.296;2023-04-05T06:08:45;94301.03;;;4.18;65.66
35892;BME280;21993;42.672;23.296;2023-04-05T06:11:21;94301.03;;;4.18;65.08
35892;BME280;21993;42.672;23.296;2023-04-05T06:13:48;94305.75;;;4.13;65.41
35892;BME280;21993;42.672;23.296;2023-04-05T06:16:14;94309.88;;;4.16;66.00
35892;BME280;21993;42.672;23.296;2023-04-05T06:18:40;94306.53;;;4.27;65.29
35892;BME280;21993;42.672;23.296;2023-04-05T06:21:05;94316.97;;;4.14;65.83
35892;BME280;21993;42.672;23.296;2023-04-05T06:23:31;94315.44;;;4.35;64.23
35892;BME280;21993;42.672;23.296;2023-04-05T06:25:56;94317.94;;;4.37;65.05
35892;BME280;21993;42.672;23.296;2023-04-05T06:28:22;94319.41;;;4.28;63.80
35892;BME280;21993;42.672;23.296;2023-04-05T06:30:47;94312.31;;;4.43;63.54
35892;BME280;21993;42.672;23.296;2023-04-05T06:33:13;94305.69;;;4.39;63.90
35892;BME280;21993;42.672;23.296;2023-04-05T06:35:38;94319.03;;;4.45;64.25
35892;BME280;21993;42.672;23.296;2023-04-05T06:38:04;94318.19;;;4.58;63.88
35892;BME280;21993;42.672;23.296;2023-04-05T06:40:29;94325.38;;;4.54;63.42
35892;BME280;21993;42.672;23.296;2023-04-05T06:42:55;94331.06;;;4.59;63.15
35892;BME280;21993;42.672;23.296;2023-04-05T06:45:20;94327.22;;;4.65;63.09
35892;BME280;21993;42.672;23.296;2023-04-05T06:47:45;94329.16;;;4.74;62.28
35892;BME280;21993;42.672;23.296;2023-04-05T06:50:11;94335.59;;;4.81;62.58
35892;BME280;21993;42.672;23.296;2023-04-05T06:52:38;94332.25;;;4.79;62.54
35892;BME280;21993;42.672;23.296;2023-04-05T06:55:04;94336.59;;;4.78;62.32
35892;BME280;21993;42.672;23.296;2023-04-05T06:57:29;94337.13;;;4.84;61.47
35892;BME280;21993;42.672;23.296;2023-04-05T06:59:55;94344.03;;;4.96;62.04
35892;BME280;21993;42.672;23.296;2023-04-05T07:02:20;94345.47;;;5.00;61.15
35892;BME280;21993;42.672;23.296;2023-04-05T07:04:46;94350.34;;;5.04;61.80
35892;BME280;21993;42.672;23.296;2023-04-05T07:07:12;94355.44;;;5.06;60.87
35892;BME280;21993;42.672;23.296;2023-04-05T07:09:38;94354.63;;;5.05;59.92
35892;BME280;21993;42.672;23.296;2023-04-05T07:12:05;94363.00;;;5.09;59.62
35892;BME280;21993;42.672;23.296;2023-04-05T07:14:32;94360.97;;;5.01;60.26
35892;BME280;21993;42.672;23.296;2023-04-05T07:16:57;94368.59;;;5.16;60.24
35892;BME280;21993;42.672;23.296;2023-04-05T07:19:23;94359.06;;;5.27;59.89
35892;BME280;21993;42.672;23.296;2023-04-05T07:21:48;94363.44;;;5.27;59.24
35892;BME280;21993;42.672;23.296;2023-04-05T07:24:14;94368.06;;;5.23;58.80
35892;BME280;21993;42.672;23.296;2023-04-05T07:26:40;94364.13;;;5.18;58.71
35892;BME280;21993;42.672;23.296;2023-04-05T07:29:05;94371.81;;;4.95;58.20
35892;BME280;21993;42.672;23.296;2023-04-05T07:31:33;94373.25;;;4.99;59.35
35892;BME280;21993;42.672;23.296;2023-04-05T07:33:59;94372.34;;;5.12;59.08
35892;BME280;21993;42.672;23.296;2023-04-05T07:36:25;94368.06;;;4.99;58.80
35892;BME280;21993;42.672;23.296;2023-04-05T07:38:54;94377.19;;;5.05;58.87
35892;BME280;21993;42.672;23.296;2023-04-05T07:41:20;94374.13;;;5.11;58.65
35892;BME280;21993;42.672;23.296;2023-04-05T07:43:45;94381.47;;;5.06;59.54
35892;BME280;21993;42.672;23.296;2023-04-05T07:46:11;94380.34;;;5.21;59.22
35892;BME280;21993;42.672;23.296;2023-04-05T07:48:36;94384.88;;;5.30;58.61
35892;BME280;21993;42.672;23.296;2023-04-05T07:51:06;94392.78;;;5.29;58.61
35892;BME280;21993;42.672;23.296;2023-04-05T07:53:33;94393.72;;;5.28;57.90
35892;BME280;21993;42.672;23.296;2023-04-05T07:56:06;94402.34;;;5.28;58.82
35892;BME280;21993;42.672;23.296;2023-04-05T07:58:32;94398.25;;;5.37;58.07
35892;BME280;21993;42.672;23.296;2023-04-05T08:01:02;94404.53;;;5.34;58.42
35892;BME280;21993;42.672;23.296;2023-04-05T08:03:29;94391.28;;;5.37;57.30
35892;BME280;21993;42.672;23.296;2023-04-05T08:05:56;94407.94;;;5.35;58.15
35892;BME280;21993;42.672;23.296;2023-04-05T08:08:23;94406.13;;;5.24;58.08
35892;BME280;21993;42.672;23.296;2023-04-05T08:10:49;94407.91;;;5.24;57.27
35892;BME280;21993;42.672;23.296;2023-04-05T08:13:15;94403.81;;;5.32;57.84
35892;BME280;21993;42.672;23.296;2023-04-05T08:15:40;94416.59;;;5.35;58.22
35892;BME280;21993;42.672;23.296;2023-04-05T08:18:05;94398.72;;;5.31;58.09
35892;BME280;21993;42.672;23.296;2023-04-05T08:20:31;94403.38;;;5.39;58.73
35892;BME280;21993;42.672;23.296;2023-04-05T08:23:06;94420.84;;;5.36;58.79
35892;BME280;21993;42.672;23.296;2023-04-05T08:25:32;94419.84;;;5.26;58.71
35892;BME280;21993;42.672;23.296;2023-04-05T08:27:57;94415.09;;;5.20;58.32
35892;BME280;21993;42.672;23.296;2023-04-05T08:30:22;94413.50;;;5.30;58.32
35892;BME280;21993;42.672;23.296;2023-04-05T08:32:48;94419.09;;;5.13;58.19
35892;BME280;21993;42.672;23.296;2023-04-05T08:35:14;94414.19;;;5.21;58.79
35892;BME280;21993;42.672;23.296;2023-04-05T08:37:40;94416.03;;;5.19;59.05
35892;BME280;21993;42.672;23.296;2023-04-05T08:40:06;94427.19;;;5.21;58.69
35892;BME280;21993;42.672;23.296;2023-04-05T08:42:44;94434.44;;;5.05;59.04
35892;BME280;21993;42.672;23.296;2023-04-05T08:45:13;94429.59;;;5.12;60.13
35892;BME280;21993;42.672;23.296;2023-04-05T08:47:40;94427.00;;;5.12;59.89
35892;BME280;21993;42.672;23.296;2023-04-05T08:50:09;94432.94;;;5.14;59.89
35892;BME280;21993;42.672;23.296;2023-04-05T08:52:36;94438.31;;;5.23;59.58
35892;BME280;21993;42.672;23.296;2023-04-05T08:55:07;94432.28;;;5.23;59.42
35892;BME280;21993;42.672;23.296;2023-04-05T08:57:36;94429.03;;;4.95;59.43
35892;BME280;21993;42.672;23.296;2023-04-05T09:00:05;94435.13;;;5.07;59.92
35892;BME280;21993;42.672;23.296;2023-04-05T09:02:32;94433.50;;;4.93;60.48
35892;BME280;21993;42.672;23.296;2023-04-05T09:04:58;94440.63;;;5.15;59.77
35892;BME280;21993;42.672;23.296;2023-04-05T09:07:25;94450.84;;;5.29;59.62
35892;BME280;21993;42.672;23.296;2023-04-05T09:09:58;94436.47;;;5.36;59.25
35892;BME280;21993;42.672;23.296;2023-04-05T09:12:25;94453.66;;;5.39;59.00
35892;BME280;21993;42.672;23.296;2023-04-05T09:14:51;94449.94;;;5.30;58.91
35892;BME280;21993;42.672;23.296;2023-04-05T09:17:19;94452.63;;;5.29;58.47
35892;BME280;21993;42.672;23.296;2023-04-05T09:19:45;94440.25;;;5.32;59.27
35892;BME280;21993;42.672;23.296;2023-04-05T09:22:14;94451.13;;;5.37;60.23
35892;BME280;21993;42.672;23.296;2023-04-05T09:24:43;94450.81;;;5.42;60.25
35892;BME280;21993;42.672;23.296;2023-04-05T09:27:17;94453.38;;;5.31;60.15
35892;BME280;21993;42.672;23.296;2023-04-05T09:29:44;94451.53;;;5.44;60.42
35892;BME280;21993;42.672;23.296;2023-04-05T09:32:11;94438.91;;;5.51;60.44
35892;BME280;21993;42.672;23.296;2023-04-05T09:34:38;94446.66;;;5.16;60.20
35892;BME280;21993;42.672;23.296;2023-04-05T09:37:18;94442.50;;;5.37;59.44
35892;BME280;21993;42.672;23.296;2023-04-05T09:39:45;94438.34;;;5.34;59.20
35892;BME280;21993;42.672;23.296;2023-04-05T09:42:15;94434.59;;;5.39;60.02
35892;BME280;21993;42.672;23.296;2023-04-05T09:45:00;94441.06;;;5.33;59.21
35892;BME280;21993;42.672;23.296;2023-04-05T09:47:32;94446.75;;;5.38;59.03
35892;BME280;21993;42.672;23.296;2023-04-05T09:50:01;94436.03;;;5.43;58.94
35892;BME280;21993;42.672;23.296;2023-04-05T09:52:31;94427.22;;;5.56;58.91
35892;BME280;21993;42.672;23.296;2023-04-05T09:55:01;94433.94;;;5.48;58.85
35892;BME280;21993;42.672;23.296;2023-04-05T09:57:27;94432.91;;;5.37;58.59
35892;BME280;21993;42.672;23.296;2023-04-05T09:59:54;94433.66;;;5.40;57.81
35892;BME280;21993;42.672;23.296;2023-04-05T10:02:21;94432.44;;;5.56;57.40
35892;BME280;21993;42.672;23.296;2023-04-05T10:04:47;94440.72;;;5.61;56.88
35892;BME280;21993;42.672;23.296;2023-04-05T10:07:18;94446.00;;;5.49;57.04
35892;BME280;21993;42.672;23.296;2023-04-05T10:09:47;94438.50;;;5.68;57.21
35892;BME280;21993;42.672;23.296;2023-04-05T10:12:26;94431.63;;;5.67;56.75
35892;BME280;21993;42.672;23.296;2023-04-05T10:14:52;94437.22;;;5.74;56.56
35892;BME280;21993;42.672;23.296;2023-04-05T10:25:30;94432.78;;;5.63;56.33
35892;BME280;21993;42.672;23.296;2023-04-05T10:28:04;94431.13;;;5.62;55.76
35892;BME280;21993;42.672;23.296;2023-04-05T10:30:35;94435.97;;;5.55;55.21
35892;BME280;21993;42.672;23.296;2023-04-05T10:33:18;94425.28;;;5.82;55.24
35892;BME280;21993;42.672;23.296;2023-04-05T10:36:12;94432.41;;;5.80;55.02
35892;BME280;21993;42.672;23.296;2023-04-05T10:39:00;94429.53;;;5.72;54.84
35892;BME280;21993;42.672;23.296;2023-04-05T10:41:32;94427.66;;;5.85;54.83
35892;BME280;21993;42.672;23.296;2023-04-05T10:43:58;94432.16;;;5.83;54.53
35892;BME280;21993;42.672;23.296;2023-04-05T10:46:25;94440.03;;;5.71;55.33
35892;BME280;21993;42.672;23.296;2023-04-05T10:49:03;94441.28;;;5.54;55.26
35892;BME280;21993;42.672;23.296;2023-04-05T10:51:33;94442.34;;;5.51;55.23
35892;BME280;21993;42.672;23.296;2023-04-05T10:53:59;94432.03;;;5.50;55.65
35892;BME280;21993;42.672;23.296;2023-04-05T10:56:25;94439.84;;;5.50;55.80
35892;BME280;21993;42.672;23.296;2023-04-05T10:58:52;94435.06;;;5.44;55.49
35892;BME280;21993;42.672;23.296;2023-04-05T11:01:19;94441.66;;;5.60;55.18
35892;BME280;21993;42.672;23.296;2023-04-05T11:03:49;94440.13;;;5.58;55.48
35892;BME280;21993;42.672;23.296;2023-04-05T11:08:49;94448.06;;;5.32;56.16
35892;BME280;21993;42.672;23.296;2023-04-05T11:11:16;94461.06;;;5.56;56.58
35892;BME280;21993;42.672;23.296;2023-04-05T11:13:51;94453.81;;;5.49;56.10
35892;BME280;21993;42.672;23.296;2023-04-05T11:16:17;94456.81;;;5.55;55.41
35892;BME280;21993;42.672;23.296;2023-04-05T11:18:47;94451.75;;;5.65;55.24
35892;BME280;21993;42.672;23.296;2023-04-05T11:21:20;94456.69;;;5.57;55.14
35892;BME280;21993;42.672;23.296;2023-04-05T11:24:06;94451.41;;;5.46;55.37
35892;BME280;21993;42.672;23.296;2023-04-05T11:26:33;94458.66;;;5.53;54.30
35892;BME280;21993;42.672;23.296;2023-04-05T11:28:58;94444.00;;;5.52;55.19
35892;BME280;21993;42.672;23.296;2023-04-05T11:31:24;94454.69;;;5.60;55.56
35892;BME280;21993;42.672;23.296;2023-04-05T11:34:04;94456.84;;;5.67;55.50
35892;BME280;21993;42.672;23.296;2023-04-05T11:36:46;94452.84;;;5.74;55.17
35892;BME280;21993;42.672;23.296;2023-04-05T11:41:45;94452.03;;;5.84;55.14
35892;BME280;21993;42.672;23.296;2023-04-05T11:44:14;94440.25;;;5.91;55.06
35892;BME280;21993;42.672;23.296;2023-04-05T11:46:45;94442.34;;;5.86;54.63
35892;BME280;21993;42.672;23.296;2023-04-05T11:49:14;94447.53;;;5.75;55.09
35892;BME280;21993;42.672;23.296;2023-04-05T11:51:40;94446.72;;;5.86;54.79
35892;BME280;21993;42.672;23.296;2023-04-05T11:54:09;94458.53;;;5.79;55.19
35892;BME280;21993;42.672;23.296;2023-04-05T11:56:35;94446.91;;;5.96;55.12
35892;BME280;21993;42.672;23.296;2023-04-05T11:59:01;94431.78;;;5.88;54.95
35892;BME280;21993;42.672;23.296;2023-04-05T12:01:27;94439.53;;;5.89;55.06
35892;BME280;21993;42.672;23.296;2023-04-05T12:03:56;94438.88;;;6.10;54.97
35892;BME280;21993;42.672;23.296;2023-04-05T12:06:22;94422.81;;;6.27;54.67
35892;BME280;21993;42.672;23.296;2023-04-05T12:08:48;94428.34;;;6.11;54.43
35892;BME280;21993;42.672;23.296;2023-04-05T12:11:48;94441.41;;;6.23;54.96
35892;BME280;21993;42.672;23.296;2023-04-05T12:14:06;94439.63;;;6.23;55.35
35892;BME280;21993;42.672;23.296;2023-04-05T12:16:32;94443.78;;;6.37;55.01
35892;BME280;21993;42.672;23.296;2023-04-05T12:18:59;94438.19;;;6.30;55.41
35892;BME280;21993;42.672;23.296;2023-04-05T12:21:25;94439.50;;;6.36;55.12
35892;BME280;21993;42.672;23.296;2023-04-05T12:23:52;94440.06;;;6.06;55.31
35892;BME280;21993;42.672;23.296;2023-04-05T12:26:18;94439.13;;;6.18;55.72
35892;BME280;21993;42.672;23.296;2023-04-05T12:28:57;94436.06;;;6.35;55.64
35892;BME280;21993;42.672;23.296;2023-04-05T12:31:43;94440.59;;;6.44;55.40
35892;BME280;21993;42.672;23.296;2023-04-05T12:34:10;94440.13;;;6.62;54.92
35892;BME280;21993;42.672;23.296;2023-04-05T12:36:36;94443.56;;;6.40;55.63
35892;BME280;21993;42.672;23.296;2023-04-05T12:39:07;94448.88;;;6.38;55.42
35892;BME280;21993;42.672;23.296;2023-04-05T12:41:33;94436.88;;;6.13;55.68
35892;BME280;21993;42.672;23.296;2023-04-05T12:44:49;94448.16;;;6.25;55.60
35892;BME280;21993;42.672;23.296;2023-04-05T12:46:49;94446.88;;;6.31;55.68
35892;BME280;21993;42.672;23.296;2023-04-05T12:49:16;94442.22;;;6.23;55.20
35892;BME280;21993;42.672;23.296;2023-04-05T12:51:45;94446.50;;;6.35;54.86
35892;BME280;21993;42.672;23.296;2023-04-05T12:54:20;94443.66;;;6.38;54.77
35892;BME280;21993;42.672;23.296;2023-04-05T12:56:49;94441.41;;;6.23;55.27
35892;BME280;21993;42.672;23.296;2023-04-05T12:59:14;94447.00;;;6.40;54.53
35892;BME280;21993;42.672;23.296;2023-04-05T13:01:40;94442.13;;;6.47;54.74
35892;BME280;21993;42.672;23.296;2023-04-05T13:04:05;94451.47;;;6.27;54.69
35892;BME280;21993;42.672;23.296;2023-04-05T13:06:31;94455.03;;;6.26;54.36
35892;BME280;21993;42.672;23.296;2023-04-05T13:08:56;94452.75;;;6.21;53.95
35892;BME280;21993;42.672;23.296;2023-04-05T13:11:22;94453.81;;;6.08;53.35
35892;BME280;21993;42.672;23.296;2023-04-05T13:13:47;94454.00;;;5.93;53.69
35892;BME280;21993;42.672;23.296;2023-04-05T13:16:13;94455.22;;;6.01;53.94
35892;BME280;21993;42.672;23.296;2023-04-05T13:18:38;94457.00;;;5.87;54.67
35892;BME280;21993;42.672;23.296;2023-04-05T13:21:04;94455.66;;;5.95;54.77
35892;BME280;21993;42.672;23.296;2023-04-05T13:23:36;94455.00;;;6.15;54.69
35892;BME280;21993;42.672;23.296;2023-04-05T13:26:02;94457.97;;;6.21;54.23
35892;BME280;21993;42.672;23.296;2023-04-05T13:28:28;94443.16;;;6.22;53.30
35892;BME280;21993;42.672;23.296;2023-04-05T13:30:53;94448.59;;;6.08;53.56
35892;BME280;21993;42.672;23.296;2023-04-05T13:33:19;94456.31;;;6.20;53.96